Plum Springs, Kentucky
Current Conditions -  °F | °C
As of 1:53 PM on Thursday 25 Dec 2014 (Local Time) from KBWG Reporting Station
Clear Clear  
Wind Chill: 43°   Ceiling: Unl
Heat Index: 47°   Visibility: 10mi
Dew Point: 33°   Wind: 9mph
Humidity: 59%   Direction: 210°SSW
Pressure: 30.16"   Gusts: NA
Location:  37.1031°N, 86.4201°W
Report Text: KBWG 251953Z AUTO 21008KT 10SM CLR 08/01 A3016 RMK AO2 SLP215 T00830006
Loading
Personal Weather Stations






























Interactive Weather Map New forecast layout! Learn more

10-Day Weather Forecast

Advertisements
Track Severe Weather on mobile